Time;durP1;ratioP1;P1;durP2;ratioP2;P2;SDS_P1;SDS_P2;PMS_P1;PMS_P2;Temp;Humidity;BMP_temperature;BMP_pressure;BME280_temperature;BME280_humidity;BME280_pressure;Samples;Min_cycle;Max_cycle;Signal;HPM_P1;HPM_P2
2021/07/12 00:00:08;;;;;;;3.03;2.80;;;21.40;99.90;;;;;;4978699;28;20441;-75
2021/07/12 00:02:33;;;;;;;2.90;2.63;;;21.50;99.90;;;;;;4996514;28;20997;-75
2021/07/12 00:04:59;;;;;;;3.20;2.90;;;21.60;99.90;;;;;;4996242;28;20444;-75
2021/07/12 00:07:25;;;;;;;3.40;3.10;;;21.40;99.90;;;;;;4997366;28;20194;-76
2021/07/12 00:09:50;;;;;;;6.67;3.13;;;21.10;99.90;;;;;;4996219;28;20240;-74
2021/07/12 00:12:16;;;;;;;3.03;2.80;;;21.00;99.90;;;;;;4997623;28;20223;-74
2021/07/12 00:14:42;;;;;;;2.93;2.73;;;21.20;99.90;;;;;;4998144;28;20359;-74
2021/07/12 00:17:07;;;;;;;2.90;2.60;;;21.00;99.90;;;;;;4995866;28;20193;-73
2021/07/12 00:19:36;;;;;;;5.37;3.20;;;21.00;99.90;;;;;;4979827;28;20192;-75
2021/07/12 00:22:02;;;;;;;2.90;2.70;;;21.10;99.90;;;;;;4994144;28;20296;-75
2021/07/12 00:24:27;;;;;;;3.57;3.27;;;21.10;99.90;;;;;;4998535;28;20546;-76
2021/07/12 00:26:53;;;;;;;2.90;2.70;;;21.00;99.90;;;;;;4996787;28;20332;-74
2021/07/12 00:29:19;;;;;;;3.30;2.93;;;21.10;99.90;;;;;;4992743;28;20202;-76
2021/07/12 00:31:44;;;;;;;6.63;2.90;;;21.20;99.90;;;;;;4982685;28;20217;-76
2021/07/12 00:34:10;;;;;;;4.33;2.97;;;21.10;99.90;;;;;;4994820;28;20224;-75
2021/07/12 00:36:35;;;;;;;3.13;2.83;;;20.90;99.90;;;;;;4996998;28;20185;-76
2021/07/12 00:39:02;;;;;;;3.33;3.03;;;21.00;99.90;;;;;;4996671;28;20579;-75
2021/07/12 00:41:27;;;;;;;3.30;3.10;;;20.90;99.90;;;;;;4997383;28;20227;-75
2021/07/12 00:43:53;;;;;;;3.27;3.07;;;20.90;99.90;;;;;;4997432;28;20921;-75
2021/07/12 00:46:19;;;;;;;3.53;3.23;;;20.90;99.90;;;;;;4994757;28;20697;-75
2021/07/12 00:48:44;;;;;;;3.17;2.87;;;20.90;99.90;;;;;;4979948;28;20667;-74
2021/07/12 00:51:11;;;;;;;3.17;2.73;;;21.00;99.90;;;;;;4995533;28;20735;-75
2021/07/12 00:53:37;;;;;;;4.00;3.10;;;20.90;99.90;;;;;;4999872;28;20282;-75
2021/07/12 00:56:05;;;;;;;2.83;2.63;;;20.90;99.90;;;;;;4995578;28;20451;-73
2021/07/12 00:58:31;;;;;;;5.93;3.10;;;20.80;99.90;;;;;;4992545;28;20468;-71
2021/07/12 01:00:59;;;;;;;3.17;2.60;;;20.80;99.90;;;;;;4997405;28;20865;-75
2021/07/12 01:03:25;;;;;;;3.30;3.00;;;20.80;99.90;;;;;;4994876;28;20220;-75
2021/07/12 01:05:52;;;;;;;4.30;2.83;;;20.80;99.90;;;;;;4996699;28;20480;-74
2021/07/12 01:08:18;;;;;;;3.80;3.47;;;20.70;99.90;;;;;;4995612;28;20448;-73
2021/07/12 01:10:57;;;;;;;3.27;2.97;;;20.70;99.90;;;;;;4995750;28;20502;-74
2021/07/12 01:13:35;;;;;;;2.83;2.63;;;20.70;99.90;;;;;;4997510;28;20535;-75
2021/07/12 01:16:22;;;;;;;3.43;2.80;;;20.60;99.90;;;;;;4997688;28;20456;-75
2021/07/12 01:19:23;;;;;;;3.13;2.93;;;20.60;99.90;;;;;;4994729;28;20437;-76
2021/07/12 01:22:22;;;;;;;3.20;2.90;;;20.50;99.90;;;;;;4996794;28;20522;-77
2021/07/12 01:25:09;;;;;;;3.20;3.00;;;20.60;99.90;;;;;;4995385;28;20483;-76
2021/07/12 01:28:08;;;;;;;2.70;2.50;;;20.40;99.90;;;;;;4996000;28;20437;-74
2021/07/12 01:31:11;;;;;;;3.40;3.07;;;20.50;99.90;;;;;;4998044;28;20958;-76
2021/07/12 01:34:08;;;;;;;6.43;3.40;;;20.60;99.90;;;;;;4992918;28;20460;-74
2021/07/12 01:36:57;;;;;;;3.40;3.10;;;20.60;99.90;;;;;;4993594;28;20441;-74
2021/07/12 01:39:29;;;;;;;2.90;2.70;;;20.60;99.90;;;;;;4983979;28;21348;-75
2021/07/12 01:42:06;;;;;;;3.60;2.70;;;20.30;99.90;;;;;;4993561;28;20448;-76
2021/07/12 01:44:49;;;;;;;7.27;3.30;;;20.40;99.90;;;;;;4995682;28;20511;-74
2021/07/12 01:47:24;;;;;;;2.83;2.63;;;20.40;99.90;;;;;;4995518;28;20428;-76
2021/07/12 01:50:01;;;;;;;3.43;3.13;;;20.40;99.90;;;;;;4991805;28;20455;-75
2021/07/12 01:53:03;;;;;;;3.30;3.00;;;20.30;99.90;;;;;;4979715;28;20487;-73
2021/07/12 01:55:47;;;;;;;4.33;3.60;;;20.30;99.90;;;;;;4995524;28;20435;-74
2021/07/12 01:58:19;;;;;;;3.70;2.90;;;20.40;99.90;;;;;;4990574;28;20504;-75
2021/07/12 02:00:47;;;;;;;3.40;3.10;;;20.50;99.90;;;;;;4994430;28;20494;-75
2021/07/12 02:03:17;;;;;;;4.73;2.97;;;20.50;99.90;;;;;;4996621;28;20463;-74
2021/07/12 02:05:45;;;;;;;3.10;2.90;;;20.30;99.90;;;;;;4980821;28;20448;-75
2021/07/12 02:08:14;;;;;;;5.00;3.70;;;20.30;99.90;;;;;;4994146;28;20520;-75
2021/07/12 02:10:40;;;;;;;3.20;2.90;;;20.30;99.90;;;;;;4993342;28;20942;-76
2021/07/12 02:13:06;;;;;;;3.60;3.30;;;20.20;99.90;;;;;;4994647;28;20453;-74
2021/07/12 02:15:34;;;;;;;3.60;3.30;;;20.20;99.90;;;;;;4996318;28;22207;-75
2021/07/12 02:18:01;;;;;;;4.30;3.90;;;20.20;99.90;;;;;;4993752;28;20217;-74
2021/07/12 02:20:30;;;;;;;3.43;2.90;;;20.20;99.90;;;;;;4993920;28;20444;-74
2021/07/12 02:22:56;;;;;;;4.63;3.73;;;20.10;99.90;;;;;;4993724;28;20555;-75
2021/07/12 02:25:24;;;;;;;3.20;3.00;;;20.10;99.90;;;;;;4998609;28;20436;-75
2021/07/12 02:27:49;;;;;;;3.50;3.03;;;20.30;99.90;;;;;;4992835;28;20437;-76
2021/07/12 02:30:16;;;;;;;3.40;3.10;;;20.20;99.90;;;;;;4994750;28;21375;-75
2021/07/12 02:32:45;;;;;;;3.90;3.00;;;20.20;99.90;;;;;;4995747;28;20236;-75
2021/07/12 02:35:13;;;;;;;4.13;3.07;;;20.20;99.90;;;;;;4994038;28;20440;-75
2021/07/12 02:37:41;;;;;;;3.53;3.23;;;20.00;99.90;;;;;;4997452;28;20451;-76
2021/07/12 02:40:11;;;;;;;3.37;3.07;;;20.00;99.90;;;;;;4994107;28;20525;-75
2021/07/12 02:42:42;;;;;;;3.50;3.17;;;19.90;99.90;;;;;;4993146;28;20483;-75
2021/07/12 02:45:09;;;;;;;4.20;3.80;;;19.80;99.90;;;;;;4999663;28;20639;-76
2021/07/12 02:47:37;;;;;;;3.40;3.00;;;19.80;99.90;;;;;;5003277;28;20976;-75
2021/07/12 02:50:05;;;;;;;3.20;2.90;;;19.90;99.90;;;;;;5000173;28;20456;-76
2021/07/12 02:52:38;;;;;;;3.27;2.97;;;20.10;99.90;;;;;;5000157;28;20474;-76
2021/07/12 02:55:05;;;;;;;3.30;3.10;;;20.10;99.90;;;;;;5003712;28;20444;-76
2021/07/12 02:57:31;;;;;;;4.40;3.60;;;20.20;99.90;;;;;;5011359;28;20440;-76
2021/07/12 02:59:57;;;;;;;3.27;2.97;;;20.10;99.90;;;;;;5021546;28;20439;-76
2021/07/12 03:02:22;;;;;;;5.60;3.30;;;20.00;99.90;;;;;;5019173;28;20427;-77
2021/07/12 03:04:48;;;;;;;5.07;3.70;;;20.00;99.90;;;;;;5017139;28;20220;-74
2021/07/12 03:07:39;;;;;;;3.70;3.40;;;19.90;99.90;;;;;;5007462;28;20216;-75
2021/07/12 03:10:13;;;;;;;6.33;4.17;;;19.90;99.90;;;;;;5000034;28;20452;-76
2021/07/12 03:12:52;;;;;;;5.63;3.60;;;19.90;99.90;;;;;;4994746;28;20532;-75
2021/07/12 03:15:47;;;;;;;4.00;3.60;;;19.90;99.90;;;;;;5000279;28;20428;-74
2021/07/12 03:18:26;;;;;;;5.60;3.80;;;19.80;99.90;;;;;;4993595;28;20436;-76
2021/07/12 03:20:54;;;;;;;3.27;2.97;;;19.80;99.90;;;;;;4996935;28;20526;-76
2021/07/12 03:23:21;;;;;;;3.87;3.57;;;19.80;99.90;;;;;;4997730;28;20483;-75
2021/07/12 03:25:52;;;;;;;3.67;3.33;;;19.80;99.90;;;;;;4996836;28;20441;-75
2021/07/12 03:28:19;;;;;;;4.00;3.10;;;19.70;99.90;;;;;;4996360;28;20436;-75
2021/07/12 03:30:46;;;;;;;3.40;3.10;;;19.60;99.90;;;;;;4998438;28;20452;-76
2021/07/12 03:33:14;;;;;;;3.83;3.50;;;19.70;99.90;;;;;;4994057;28;20463;-75
2021/07/12 03:35:44;;;;;;;3.30;3.10;;;19.80;99.90;;;;;;4999436;28;20958;-75
2021/07/12 03:38:19;;;;;;;3.50;3.20;;;19.80;99.90;;;;;;4997260;28;20572;-75
2021/07/12 03:40:45;;;;;;;3.97;3.47;;;19.80;99.90;;;;;;4995170;28;20444;-75
2021/07/12 03:43:13;;;;;;;4.10;3.17;;;19.80;99.90;;;;;;4998686;28;20448;-75
2021/07/12 03:45:41;;;;;;;3.80;3.50;;;19.70;99.90;;;;;;4999787;28;20474;-75
2021/07/12 03:48:07;;;;;;;3.70;3.00;;;19.70;99.90;;;;;;4993159;28;21311;-75
2021/07/12 03:50:33;;;;;;;4.73;3.30;;;19.60;99.90;;;;;;4997173;28;20436;-75
2021/07/12 03:53:01;;;;;;;3.70;3.40;;;19.50;99.90;;;;;;4995291;28;21056;-75
2021/07/12 03:55:28;;;;;;;3.80;3.50;;;19.40;99.90;;;;;;4994852;28;20204;-75
2021/07/12 03:57:54;;;;;;;4.57;3.33;;;19.60;99.90;;;;;;4996014;28;20441;-75
2021/07/12 04:00:22;;;;;;;3.23;3.00;;;19.60;99.90;;;;;;4986904;28;20438;-74
2021/07/12 04:02:49;;;;;;;4.17;3.30;;;19.50;99.90;;;;;;4994877;28;20715;-75
2021/07/12 04:05:17;;;;;;;3.83;3.47;;;19.50;99.90;;;;;;4997440;28;20448;-76
2021/07/12 04:07:43;;;;;;;4.63;3.40;;;19.40;99.90;;;;;;4992415;28;20506;-75
2021/07/12 04:10:11;;;;;;;5.37;3.70;;;19.30;99.90;;;;;;4995771;28;20826;-77
2021/07/12 04:12:41;;;;;;;3.83;3.30;;;19.30;99.90;;;;;;4999221;28;20614;-74
2021/07/12 04:15:08;;;;;;;4.00;3.60;;;19.50;99.90;;;;;;4994709;28;20814;-75
2021/07/12 04:17:34;;;;;;;3.10;2.87;;;19.50;99.90;;;;;;4996170;28;20425;-75
2021/07/12 04:20:00;;;;;;;4.83;2.93;;;19.40;99.90;;;;;;4998123;28;20490;-75
2021/07/12 04:22:26;;;;;;;3.80;3.00;;;19.40;99.90;;;;;;4994851;28;20205;-74
2021/07/12 04:24:52;;;;;;;3.73;3.43;;;19.50;99.90;;;;;;4999044;28;20436;-75
2021/07/12 04:27:18;;;;;;;3.87;3.40;;;19.40;99.90;;;;;;4998576;28;20683;-75
2021/07/12 04:29:44;;;;;;;3.93;3.47;;;19.50;99.90;;;;;;4996208;28;20467;-75
2021/07/12 04:32:10;;;;;;;4.27;3.13;;;19.40;99.90;;;;;;4995089;28;20504;-76
2021/07/12 04:34:37;;;;;;;4.60;2.90;;;19.60;99.90;;;;;;4999014;28;20205;-76
2021/07/12 04:37:03;;;;;;;5.60;3.37;;;19.70;99.90;;;;;;4996075;28;20520;-75
2021/07/12 04:39:29;;;;;;;3.43;2.90;;;19.70;99.90;;;;;;4997396;28;20520;-75
2021/07/12 04:41:54;;;;;;;5.10;3.00;;;19.70;99.90;;;;;;4996574;28;20445;-75
2021/07/12 04:44:21;;;;;;;3.97;3.67;;;19.70;99.90;;;;;;4994028;28;20236;-76
2021/07/12 04:46:47;;;;;;;4.07;3.67;;;19.50;99.90;;;;;;4997082;28;20684;-75
2021/07/12 04:49:13;;;;;;;4.23;3.80;;;19.60;99.90;;;;;;4995577;28;20444;-74
2021/07/12 04:51:39;;;;;;;7.87;3.63;;;19.60;99.90;;;;;;4978371;28;20477;-74
2021/07/12 04:54:05;;;;;;;4.83;3.60;;;19.60;99.90;;;;;;4996351;28;20472;-75
2021/07/12 04:56:31;;;;;;;5.43;4.90;;;19.70;99.90;;;;;;4991681;28;20194;-75
2021/07/12 04:58:57;;;;;;;4.23;3.80;;;19.70;99.90;;;;;;4992946;28;20572;-75
2021/07/12 05:01:24;;;;;;;5.53;3.73;;;19.70;99.90;;;;;;4994175;28;20445;-75
2021/07/12 05:03:50;;;;;;;4.53;4.00;;;19.80;99.90;;;;;;4995362;28;20817;-76
2021/07/12 05:06:15;;;;;;;3.87;3.53;;;19.80;99.90;;;;;;4996541;28;20438;-75
2021/07/12 05:08:41;;;;;;;4.63;3.00;;;19.70;99.90;;;;;;4995179;28;20204;-78
2021/07/12 05:11:07;;;;;;;4.57;3.30;;;19.60;99.90;;;;;;4977922;28;20213;-77
2021/07/12 05:13:35;;;;;;;5.40;3.70;;;19.60;99.90;;;;;;4993576;28;20212;-77
2021/07/12 05:16:02;;;;;;;3.30;3.00;;;19.50;99.90;;;;;;4995259;28;20457;-77
2021/07/12 05:18:28;;;;;;;3.80;3.40;;;19.60;99.90;;;;;;4994208;28;20437;-76
2021/07/12 05:20:56;;;;;;;8.00;3.37;;;19.80;99.90;;;;;;4990796;28;20438;-76
2021/07/12 05:23:21;;;;;;;3.17;2.87;;;19.90;99.90;;;;;;4992020;28;20637;-76
2021/07/12 05:25:47;;;;;;;4.70;3.60;;;20.00;99.90;;;;;;4993379;28;20460;-75
2021/07/12 05:28:13;;;;;;;3.50;3.20;;;20.00;99.90;;;;;;4993440;28;20220;-75
2021/07/12 05:30:38;;;;;;;3.10;2.90;;;20.10;99.90;;;;;;4991990;28;20428;-76
2021/07/12 05:33:06;;;;;;;3.00;2.70;;;20.20;99.90;;;;;;4976058;28;20656;-76
2021/07/12 05:35:31;;;;;;;3.50;3.20;;;20.20;99.90;;;;;;4991287;28;20182;-75
2021/07/12 05:37:57;;;;;;;3.93;3.03;;;19.90;99.90;;;;;;4990570;28;20635;-74
2021/07/12 05:40:23;;;;;;;3.43;2.83;;;20.10;99.90;;;;;;4995335;28;20646;-77
2021/07/12 05:42:48;;;;;;;3.47;3.17;;;20.10;99.90;;;;;;4979547;28;20228;-74
2021/07/12 05:45:14;;;;;;;3.63;3.00;;;20.00;99.90;;;;;;4993033;28;20247;-75
2021/07/12 05:47:40;;;;;;;3.30;3.00;;;20.10;99.90;;;;;;4992301;28;20189;-74
2021/07/12 05:50:07;;;;;;;3.43;3.13;;;20.20;99.90;;;;;;4990387;28;20251;-75
2021/07/12 05:52:35;;;;;;;3.37;3.07;;;20.30;99.90;;;;;;4987070;28;20233;-76
2021/07/12 05:55:01;;;;;;;3.30;3.00;;;20.40;99.90;;;;;;4992334;28;20814;-75
2021/07/12 05:57:26;;;;;;;5.30;3.10;;;20.50;99.90;;;;;;4971992;28;20425;-75
2021/07/12 05:59:52;;;;;;;3.50;3.20;;;20.60;99.90;;;;;;4992199;28;20197;-76
2021/07/12 06:02:18;;;;;;;3.00;2.80;;;20.60;99.90;;;;;;4972602;28;20204;-74
2021/07/12 06:04:44;;;;;;;4.63;3.63;;;20.60;99.90;;;;;;4990089;28;20216;-74
2021/07/12 06:07:10;;;;;;;3.30;3.00;;;20.60;99.90;;;;;;4992622;28;20189;-74
2021/07/12 06:09:36;;;;;;;4.40;3.27;;;20.90;99.90;;;;;;4987684;28;20444;-75
2021/07/12 06:12:02;;;;;;;3.90;3.07;;;21.00;99.90;;;;;;4989342;28;20862;-74
2021/07/12 06:14:28;;;;;;;5.30;3.57;;;21.00;99.90;;;;;;4992425;28;20258;-73
2021/07/12 06:16:54;;;;;;;5.80;2.90;;;21.10;99.90;;;;;;4991266;28;20502;-74
2021/07/12 06:19:19;;;;;;;4.43;4.00;;;21.10;99.90;;;;;;4990344;28;20193;-74
2021/07/12 06:21:45;;;;;;;4.70;3.17;;;21.30;99.90;;;;;;4996466;28;20283;-76
2021/07/12 06:24:11;;;;;;;3.27;2.97;;;21.30;99.90;;;;;;4994111;28;20292;-75
2021/07/12 06:26:37;;;;;;;4.50;3.37;;;21.40;99.90;;;;;;4996499;28;20185;-74
2021/07/12 06:29:03;;;;;;;4.77;3.30;;;21.60;99.90;;;;;;4994712;28;20493;-76
2021/07/12 06:31:29;;;;;;;3.40;2.97;;;21.70;99.90;;;;;;4995342;28;20473;-75
2021/07/12 06:33:55;;;;;;;4.13;3.10;;;21.70;99.90;;;;;;4994038;28;20343;-75
2021/07/12 06:36:20;;;;;;;3.60;3.13;;;21.90;99.90;;;;;;4998096;28;20216;-75
2021/07/12 06:38:46;;;;;;;6.87;3.40;;;22.00;99.90;;;;;;4997393;28;20178;-75
2021/07/12 06:41:12;;;;;;;2.90;2.70;;;22.00;99.90;;;;;;4993861;28;20236;-74
2021/07/12 06:43:37;;;;;;;7.60;2.93;;;22.10;99.90;;;;;;5000926;28;20331;-74
2021/07/12 06:46:03;;;;;;;3.27;2.97;;;22.10;99.90;;;;;;4993772;28;20209;-75
2021/07/12 06:48:29;;;;;;;4.83;3.83;;;22.20;99.90;;;;;;4995508;28;20241;-74
2021/07/12 06:50:55;;;;;;;4.23;2.70;;;22.30;99.90;;;;;;4995732;28;20190;-75
2021/07/12 06:53:20;;;;;;;4.50;2.97;;;22.30;99.90;;;;;;4995985;28;20232;-75
2021/07/12 06:55:46;;;;;;;3.10;2.80;;;22.20;99.90;;;;;;4980374;28;20428;-75
2021/07/12 06:58:12;;;;;;;3.47;3.07;;;22.30;99.90;;;;;;4993473;28;20927;-76
2021/07/12 07:00:42;;;;;;;3.00;2.70;;;22.30;99.90;;;;;;4996157;28;20185;-76
2021/07/12 07:03:09;;;;;;;5.00;3.27;;;22.30;99.90;;;;;;4993988;28;20871;-76
2021/07/12 07:05:35;;;;;;;3.13;2.80;;;22.30;99.90;;;;;;4998295;28;20482;-75
2021/07/12 07:08:01;;;;;;;6.17;2.93;;;22.40;99.90;;;;;;4991920;28;20440;-76
2021/07/12 07:10:27;;;;;;;3.63;3.33;;;22.40;99.90;;;;;;4991531;28;20505;-75
2021/07/12 07:12:53;;;;;;;3.63;2.87;;;22.50;99.90;;;;;;4995944;28;20471;-77
2021/07/12 07:15:19;;;;;;;3.30;2.83;;;22.50;99.90;;;;;;4991244;28;20193;-75
2021/07/12 07:17:45;;;;;;;2.77;2.57;;;22.60;99.90;;;;;;4996043;28;20482;-76
2021/07/12 07:20:11;;;;;;;4.77;3.00;;;22.80;99.90;;;;;;4975365;28;20455;-75
2021/07/12 07:22:37;;;;;;;3.03;2.63;;;22.90;99.90;;;;;;4992656;28;20197;-76
2021/07/12 07:25:04;;;;;;;4.00;2.67;;;22.90;99.90;;;;;;4992664;28;20452;-77
2021/07/12 07:27:32;;;;;;;3.37;3.07;;;22.90;99.90;;;;;;4997482;28;20204;-75
2021/07/12 07:29:58;;;;;;;2.77;2.57;;;23.00;99.90;;;;;;4994613;28;20439;-76
2021/07/12 07:32:24;;;;;;;4.20;3.40;;;23.00;99.90;;;;;;4994115;28;20476;-76
2021/07/12 07:34:50;;;;;;;2.90;2.70;;;23.00;99.90;;;;;;4985376;28;20487;-76
2021/07/12 07:37:16;;;;;;;5.80;3.33;;;23.20;99.90;;;;;;4993312;28;20440;-76
2021/07/12 07:39:43;;;;;;;4.33;3.03;;;23.40;99.90;;;;;;4997382;28;21754;-75
2021/07/12 07:42:08;;;;;;;4.60;3.27;;;23.40;99.90;;;;;;4996922;28;20197;-76
2021/07/12 07:44:34;;;;;;;3.30;2.87;;;23.40;99.90;;;;;;4983626;28;22297;-78
2021/07/12 07:47:00;;;;;;;4.07;2.60;;;23.30;99.90;;;;;;4995045;28;20923;-73
2021/07/12 07:49:27;;;;;;;3.43;3.13;;;23.40;99.90;;;;;;4978789;28;20197;-75
2021/07/12 07:51:52;;;;;;;3.10;2.80;;;23.50;99.90;;;;;;4997434;28;20259;-77
2021/07/12 07:54:18;;;;;;;5.20;3.50;;;23.70;99.90;;;;;;4996903;28;20558;-76
2021/07/12 07:56:45;;;;;;;3.10;2.80;;;23.80;99.90;;;;;;4997578;28;20210;-77
2021/07/12 07:59:14;;;;;;;3.17;2.90;;;23.90;99.90;;;;;;4995168;28;20441;-75
2021/07/12 08:01:40;;;;;;;2.67;2.47;;;24.10;99.90;;;;;;4998502;28;20691;-76
2021/07/12 08:04:05;;;;;;;4.40;3.97;;;24.30;99.90;;;;;;4995907;28;20499;-76
2021/07/12 08:06:31;;;;;;;8.37;6.03;;;24.40;99.90;;;;;;4992403;28;20809;-76
2021/07/12 08:08:57;;;;;;;2.80;2.60;;;24.50;99.90;;;;;;4992630;28;20193;-76
2021/07/12 08:11:23;;;;;;;3.23;2.93;;;24.60;99.90;;;;;;4973998;28;20236;-77
2021/07/12 08:13:48;;;;;;;7.37;3.97;;;24.60;99.90;;;;;;5001154;28;20213;-75
2021/07/12 08:16:14;;;;;;;2.50;2.30;;;24.90;99.90;;;;;;4995542;28;20643;-75
2021/07/12 08:18:40;;;;;;;3.10;2.80;;;24.80;99.90;;;;;;4990975;28;20186;-74
2021/07/12 08:21:08;;;;;;;3.90;3.60;;;24.90;99.90;;;;;;4991113;28;20983;-77
2021/07/12 08:23:33;;;;;;;4.40;4.00;;;24.90;99.90;;;;;;4991594;28;21384;-76
2021/07/12 08:25:59;;;;;;;6.40;5.80;;;25.00;99.90;;;;;;5012672;28;20440;-76
2021/07/12 08:28:25;;;;;;;6.67;6.07;;;25.10;99.90;;;;;;5028845;28;20280;-73
2021/07/12 08:30:52;;;;;;;3.47;3.17;;;25.10;99.90;;;;;;5014001;28;20285;-79
2021/07/12 08:33:20;;;;;;;4.53;3.53;;;25.20;99.90;;;;;;4998761;28;20331;-76
2021/07/12 08:35:46;;;;;;;3.70;3.10;;;25.30;99.90;;;;;;5016497;28;20439;-74
2021/07/12 08:38:12;;;;;;;3.97;3.60;;;25.30;99.90;;;;;;4997853;28;20961;-76
2021/07/12 08:40:37;;;;;;;4.83;3.80;;;25.50;99.90;;;;;;4995183;28;20497;-76
2021/07/12 08:43:03;;;;;;;8.87;3.60;;;25.50;99.90;;;;;;4992688;28;20197;-75
2021/07/12 08:45:29;;;;;;;3.30;3.00;;;25.50;99.90;;;;;;4991921;28;20185;-75
2021/07/12 08:47:55;;;;;;;4.83;2.90;;;25.60;99.90;;;;;;4989501;28;20193;-76
2021/07/12 08:50:23;;;;;;;4.00;3.57;;;25.50;99.90;;;;;;4991872;28;20295;-77
2021/07/12 08:52:50;;;;;;;3.60;2.83;;;25.70;99.90;;;;;;4990258;28;20551;-77
2021/07/12 08:55:16;;;;;;;10.23;3.00;;;25.80;99.90;;;;;;4988467;28;20440;-75
2021/07/12 08:58:07;;;;;;;3.50;3.20;;;25.90;99.90;;;;;;4987226;28;20444;-75
2021/07/12 09:00:45;;;;;;;5.43;3.83;;;26.10;99.90;;;;;;4989807;28;20551;-75
2021/07/12 09:03:18;;;;;;;7.23;4.00;;;26.20;99.90;;;;;;4988567;28;20529;-76
2021/07/12 09:06:09;;;;;;;5.03;4.23;;;26.30;99.90;;;;;;4995311;28;20490;-76
2021/07/12 09:08:47;;;;;;;4.33;3.63;;;26.30;99.90;;;;;;4991088;28;20773;-75
2021/07/12 09:11:21;;;;;;;4.20;3.80;;;26.40;99.90;;;;;;4994358;28;20455;-75
2021/07/12 09:13:57;;;;;;;3.43;3.03;;;26.40;99.90;;;;;;4980693;28;20547;-75
2021/07/12 09:16:42;;;;;;;3.90;3.03;;;26.50;99.90;;;;;;4991057;28;20447;-74
2021/07/12 09:19:29;;;;;;;2.97;2.73;;;26.60;99.90;;;;;;4987716;28;20436;-76
2021/07/12 09:21:57;;;;;;;4.17;3.83;;;26.70;99.90;;;;;;4992180;28;20448;-75
2021/07/12 09:24:31;;;;;;;4.00;3.17;;;26.60;99.90;;;;;;4991447;28;20502;-76
2021/07/12 09:27:07;;;;;;;3.20;2.90;;;26.80;99.90;;;;;;4977313;28;20428;-75
2021/07/12 09:29:34;;;;;;;3.40;3.10;;;26.80;99.90;;;;;;4989965;28;20472;-76
2021/07/12 09:32:03;;;;;;;6.87;6.27;;;26.80;99.90;;;;;;4990717;28;22304;-75
2021/07/12 09:34:29;;;;;;;3.00;2.80;;;26.80;99.90;;;;;;4988227;28;20857;-74
2021/07/12 09:36:55;;;;;;;3.87;3.47;;;27.00;99.90;;;;;;4989124;28;20440;-74
2021/07/12 09:39:35;;;;;;;7.93;6.57;;;26.90;99.90;;;;;;4989862;28;20440;-75
2021/07/12 09:42:13;;;;;;;3.87;2.73;;;26.90;99.90;;;;;;4989848;28;20200;-75
2021/07/12 09:44:48;;;;;;;4.00;3.60;;;27.00;99.90;;;;;;4988549;28;20456;-75
2021/07/12 09:47:19;;;;;;;5.57;5.07;;;27.20;99.90;;;;;;4992364;28;20435;-75
2021/07/12 09:49:46;;;;;;;3.60;3.30;;;27.30;99.90;;;;;;4987085;28;20440;-75
2021/07/12 09:52:14;;;;;;;3.00;2.80;;;27.50;99.90;;;;;;4989487;28;20472;-74
2021/07/12 09:54:43;;;;;;;3.23;2.93;;;27.60;99.90;;;;;;4988921;28;20464;-74
2021/07/12 09:57:15;;;;;;;5.47;4.97;;;27.70;99.90;;;;;;4981634;28;20436;-75
2021/07/12 10:00:09;;;;;;;4.23;3.30;;;27.80;99.90;;;;;;4988457;28;20444;-75
2021/07/12 10:02:37;;;;;;;3.60;3.20;;;27.80;99.90;;;;;;4991904;28;21226;-75
2021/07/12 10:05:13;;;;;;;3.97;3.20;;;27.80;99.90;;;;;;4988958;28;22810;-75
2021/07/12 10:07:39;;;;;;;7.93;7.17;;;27.80;99.90;;;;;;4975063;28;21213;-76
2021/07/12 10:10:13;;;;;;;3.53;3.00;;;27.90;99.90;;;;;;4986209;28;21125;-76
2021/07/12 10:12:39;;;;;;;3.80;3.23;;;27.90;99.90;;;;;;4989382;28;20472;-74
2021/07/12 10:15:06;;;;;;;4.00;3.57;;;27.90;99.90;;;;;;4985995;28;21181;-75
2021/07/12 10:17:32;;;;;;;4.83;3.57;;;28.00;99.90;;;;;;4987020;28;20416;-75
2021/07/12 10:19:57;;;;;;;6.87;3.57;;;28.10;99.90;;;;;;4988318;28;20912;-76
2021/07/12 10:22:25;;;;;;;3.60;3.30;;;28.00;99.90;;;;;;4990566;28;20436;-76
2021/07/12 10:24:51;;;;;;;6.10;3.60;;;28.20;99.90;;;;;;4988392;28;20926;-75
2021/07/12 10:27:21;;;;;;;4.20;3.00;;;27.90;99.90;;;;;;4988356;28;20518;-75
2021/07/12 10:29:47;;;;;;;4.67;4.10;;;28.10;99.90;;;;;;4990820;28;21075;-75
2021/07/12 10:32:22;;;;;;;13.47;8.60;;;28.10;99.90;;;;;;4992061;28;20486;-74
2021/07/12 10:34:53;;;;;;;5.37;3.33;;;28.10;99.90;;;;;;4994986;28;20466;-76
2021/07/12 10:37:39;;;;;;;3.53;3.23;;;28.30;99.90;;;;;;4992612;28;20467;-74
2021/07/12 10:40:41;;;;;;;4.40;3.60;;;28.50;99.90;;;;;;4990106;28;20519;-75
2021/07/12 10:43:07;;;;;;;6.37;4.33;;;28.50;99.90;;;;;;4975803;28;20471;-74
2021/07/12 10:45:39;;;;;;;5.20;3.70;;;28.40;99.90;;;;;;4994444;28;20436;-75
2021/07/12 10:48:13;;;;;;;3.83;3.53;;;28.40;99.90;;;;;;4993041;28;20970;-75
2021/07/12 10:50:48;;;;;;;4.33;3.93;;;28.60;99.90;;;;;;4995138;28;20598;-76
2021/07/12 10:53:22;;;;;;;4.50;4.10;;;28.60;99.90;;;;;;4991828;28;20538;-76
2021/07/12 10:55:57;;;;;;;5.97;3.57;;;28.50;99.90;;;;;;4992678;28;20428;-75
2021/07/12 10:58:26;;;;;;;4.10;3.30;;;28.50;99.90;;;;;;4995912;28;20849;-76
2021/07/12 11:00:53;;;;;;;4.30;3.20;;;28.70;99.90;;;;;;4991231;28;20436;-75
2021/07/12 11:03:40;;;;;;;3.73;3.43;;;28.60;99.90;;;;;;4994864;28;20518;-76
2021/07/12 11:06:12;;;;;;;3.40;3.10;;;28.80;99.90;;;;;;4998623;28;20424;-75
2021/07/12 11:08:41;;;;;;;5.00;3.50;;;28.90;99.90;;;;;;4995386;28;20433;-75
2021/07/12 11:11:07;;;;;;;3.50;3.20;;;28.90;99.90;;;;;;4996899;28;20441;-75
2021/07/12 11:13:54;;;;;;;3.50;3.20;;;28.90;99.90;;;;;;4999132;28;20447;-75
2021/07/12 11:16:22;;;;;;;3.07;2.77;;;28.90;99.90;;;;;;4996497;28;20436;-75
2021/07/12 11:18:50;;;;;;;4.00;3.53;;;29.00;99.90;;;;;;4997531;28;20444;-75
2021/07/12 11:21:28;;;;;;;3.20;3.00;;;29.00;99.90;;;;;;4981102;28;20563;-75
2021/07/12 11:24:20;;;;;;;3.60;3.30;;;29.00;99.90;;;;;;4998704;28;20440;-75
2021/07/12 11:26:48;;;;;;;3.50;3.20;;;29.10;99.90;;;;;;4998375;28;20448;-75
2021/07/12 11:29:21;;;;;;;4.30;3.90;;;29.20;99.90;;;;;;4996573;28;20523;-75
2021/07/12 11:31:51;;;;;;;5.20;4.80;;;29.30;99.90;;;;;;4996034;28;20481;-75
2021/07/12 11:34:23;;;;;;;5.07;4.63;;;29.40;99.90;;;;;;4997218;28;20491;-75
2021/07/12 11:37:11;;;;;;;4.70;3.97;;;29.50;99.90;;;;;;4992670;28;20444;-74
2021/07/12 11:39:52;;;;;;;5.83;4.27;;;29.50;99.90;;;;;;4995197;28;21107;-76
2021/07/12 11:42:26;;;;;;;4.00;2.93;;;29.90;99.90;;;;;;4995460;28;20514;-76
2021/07/12 11:45:10;;;;;;;6.30;5.70;;;30.30;99.90;;;;;;4997455;28;20482;-76
2021/07/12 11:47:40;;;;;;;3.00;2.80;;;30.60;99.90;;;;;;4992627;28;20441;-75
2021/07/12 11:50:09;;;;;;;3.60;3.10;;;30.80;99.90;;;;;;4997262;28;20524;-74
2021/07/12 11:52:40;;;;;;;3.20;2.90;;;30.90;99.90;;;;;;4996270;28;21241;-75
2021/07/12 11:55:06;;;;;;;4.67;4.27;;;31.10;99.10;;;;;;4993579;28;20453;-75
2021/07/12 11:57:34;;;;;;;4.50;2.90;;;30.90;98.60;;;;;;5000331;28;20494;-75
2021/07/12 11:59:59;;;;;;;8.07;3.60;;;30.50;98.30;;;;;;4996148;28;20259;-76
2021/07/12 12:02:25;;;;;;;2.90;2.70;;;30.80;98.00;;;;;;4998294;28;20428;-75
2021/07/12 12:04:57;;;;;;;6.27;3.97;;;31.20;98.70;;;;;;4997692;28;20216;-75
2021/07/12 12:07:23;;;;;;;6.73;4.37;;;31.80;97.60;;;;;;4995438;28;20185;-74
2021/07/12 12:10:00;;;;;;;8.73;4.23;;;32.10;97.30;;;;;;4998401;28;20436;-76
2021/07/12 12:12:32;;;;;;;4.67;3.10;;;32.50;96.10;;;;;;4993875;28;20205;-76
2021/07/12 12:15:01;;;;;;;24.63;12.87;;;32.80;96.40;;;;;;4993529;28;20429;-76
2021/07/12 12:17:27;;;;;;;11.17;3.93;;;34.50;94.80;;;;;;4994582;28;20424;-75
2021/07/12 12:20:19;;;;;;;3.37;3.00;;;34.50;92.70;;;;;;4994959;28;20780;-76
2021/07/12 12:22:55;;;;;;;5.53;5.13;;;34.00;90.80;;;;;;4993004;28;20513;-76
2021/07/12 12:25:21;;;;;;;3.83;3.53;;;33.50;91.80;;;;;;4995460;28;20401;-75
2021/07/12 12:27:48;;;;;;;3.60;3.30;;;33.20;90.30;;;;;;4995198;28;20445;-75
2021/07/12 12:30:14;;;;;;;4.03;3.73;;;32.50;91.60;;;;;;4998087;28;20502;-74
2021/07/12 12:32:40;;;;;;;5.87;3.40;;;32.10;91.30;;;;;;4997569;28;20469;-75
2021/07/12 12:35:08;;;;;;;2.80;2.60;;;32.00;91.90;;;;;;4997448;28;20436;-75
2021/07/12 12:37:39;;;;;;;22.37;4.10;;;31.60;92.00;;;;;;4995893;28;20181;-75
2021/07/12 12:40:23;;;;;;;16.83;3.80;;;31.60;91.80;;;;;;4980979;28;20476;-76
2021/07/12 12:42:51;;;;;;;10.60;3.83;;;32.50;91.50;;;;;;4998150;28;20523;-75
2021/07/12 12:45:29;;;;;;;15.07;6.30;;;33.90;90.90;;;;;;4996831;28;20411;-76
2021/07/12 12:47:58;;;;;;;9.00;4.53;;;35.70;88.30;;;;;;4995644;28;20578;-76
2021/07/12 12:50:26;;;;;;;6.23;2.77;;;37.20;82.30;;;;;;4996014;28;20419;-76
2021/07/12 12:53:08;;;;;;;5.67;2.73;;;38.10;76.00;;;;;;4996589;28;20467;-75
2021/07/12 12:55:35;;;;;;;3.53;2.70;;;38.30;72.40;;;;;;4996440;28;20514;-77
2021/07/12 12:58:09;;;;;;;5.87;2.80;;;38.60;68.40;;;;;;4991667;28;20424;-75